createdAt,value
2022-12-11T00:02:06.399Z,0.74
2022-12-11T00:04:58.675Z,0.76
2022-12-11T00:07:51.329Z,0.76
2022-12-11T00:10:50.703Z,0.76
2022-12-11T00:13:43.427Z,0.75
2022-12-11T00:16:35.720Z,0.73
2022-12-11T00:19:28.022Z,0.73
2022-12-11T00:22:20.221Z,0.71
2022-12-11T00:25:13.094Z,0.72
2022-12-11T00:28:05.569Z,0.73
2022-12-11T00:30:58.028Z,0.71
2022-12-11T00:33:52.352Z,0.70
2022-12-11T00:36:44.682Z,0.68
2022-12-11T00:39:39.976Z,0.66
2022-12-11T00:42:32.066Z,0.66
2022-12-11T00:45:25.689Z,0.68
2022-12-11T00:48:18.217Z,0.71
2022-12-11T00:51:11.805Z,0.75
2022-12-11T00:54:04.433Z,0.78
2022-12-11T00:56:58.177Z,0.78
2022-12-11T00:59:50.365Z,0.77
2022-12-11T01:02:42.543Z,0.72
2022-12-11T01:05:35.552Z,0.65
2022-12-11T01:08:27.730Z,0.62
2022-12-11T01:11:21.105Z,0.60
2022-12-11T01:14:14.121Z,0.60
2022-12-11T01:17:06.111Z,0.61
2022-12-11T01:19:58.397Z,0.62
2022-12-11T01:22:53.185Z,0.63
2022-12-11T01:25:45.910Z,0.61
2022-12-11T01:28:38.491Z,0.60
2022-12-11T01:31:30.727Z,0.57
2022-12-11T01:34:23.162Z,0.53
2022-12-11T01:37:15.671Z,0.52
2022-12-11T01:40:09.812Z,0.51
2022-12-11T01:43:02.138Z,0.50
2022-12-11T01:45:54.513Z,0.50
2022-12-11T01:48:46.855Z,0.51
2022-12-11T01:51:45.571Z,0.53
2022-12-11T01:54:38.165Z,0.56
2022-12-11T01:57:31.100Z,0.57
2022-12-11T02:00:23.868Z,0.56
2022-12-11T02:03:16.162Z,0.53
2022-12-11T02:06:22.162Z,0.51
2022-12-11T02:09:17.796Z,0.52
2022-12-11T02:12:18.261Z,0.54
2022-12-11T02:15:18.630Z,0.56
2022-12-11T02:18:15.108Z,0.59
2022-12-11T02:21:12.553Z,0.58
2022-12-11T02:24:32.555Z,0.57
2022-12-11T02:27:33.583Z,0.55
2022-12-11T02:30:26.738Z,0.55
2022-12-11T02:33:23.068Z,0.53
2022-12-11T02:36:19.003Z,0.53
2022-12-11T02:39:13.796Z,0.50
2022-12-11T02:42:08.317Z,0.50
2022-12-11T02:45:03.116Z,0.50
2022-12-11T02:47:57.379Z,0.51
2022-12-11T02:50:51.813Z,0.52
2022-12-11T02:53:46.782Z,0.50
2022-12-11T02:56:43.593Z,0.47
2022-12-11T02:59:38.427Z,0.44
2022-12-11T03:02:30.480Z,0.43
2022-12-11T03:05:22.881Z,0.44
2022-12-11T03:08:17.721Z,0.45
2022-12-11T03:11:13.205Z,0.47
2022-12-11T03:14:06.088Z,0.48
2022-12-11T03:17:05.107Z,0.47
2022-12-11T03:20:05.961Z,0.44
2022-12-11T03:23:04.270Z,0.42
2022-12-11T03:25:58.695Z,0.40
2022-12-11T03:28:56.890Z,0.41
2022-12-11T03:31:55.277Z,0.42
2022-12-11T03:34:53.483Z,0.43
2022-12-11T03:37:52.646Z,0.45
2022-12-11T03:40:48.295Z,0.45
2022-12-11T03:43:41.915Z,0.47
2022-12-11T03:46:37.448Z,0.48
2022-12-11T03:49:35.017Z,0.45
2022-12-11T03:52:30.636Z,0.43
2022-12-11T03:55:24.251Z,0.42
2022-12-11T03:58:16.488Z,0.42
2022-12-11T04:01:12.089Z,0.44
2022-12-11T04:04:07.281Z,0.47
2022-12-11T04:06:59.611Z,0.48
2022-12-11T04:09:52.083Z,0.47
2022-12-11T04:12:45.563Z,0.45
2022-12-11T04:15:39.301Z,0.44
2022-12-11T04:19:06.811Z,0.41
2022-12-11T04:22:16.796Z,0.38
2022-12-11T04:25:10.665Z,0.38
2022-12-11T04:28:03.198Z,0.39
2022-12-11T04:30:55.544Z,0.42
2022-12-11T04:33:48.157Z,0.44
2022-12-11T04:36:40.426Z,0.45
2022-12-11T04:39:33.136Z,0.43
2022-12-11T04:42:25.467Z,0.37
2022-12-11T04:45:18.061Z,0.30
2022-12-11T04:48:10.452Z,0.27
2022-12-11T04:51:02.999Z,0.27
2022-12-11T04:53:55.773Z,0.27
2022-12-11T04:56:48.137Z,0.29
2022-12-11T04:59:40.503Z,0.28
2022-12-11T05:02:35.381Z,0.24
2022-12-11T05:05:28.054Z,0.18
2022-12-11T05:08:20.871Z,0.11
2022-12-11T05:11:14.984Z,0.05
2022-12-11T05:14:07.327Z,-0.00
2022-12-11T05:16:59.987Z,-0.04
2022-12-11T05:19:53.007Z,-0.05
2022-12-11T05:22:45.448Z,-0.04
2022-12-11T05:25:37.678Z,-0.01
2022-12-11T05:28:31.679Z,0.02
2022-12-11T05:31:25.230Z,0.05
2022-12-11T05:34:17.549Z,0.06
2022-12-11T05:37:09.823Z,0.06
2022-12-11T05:40:02.197Z,0.05
2022-12-11T05:42:54.379Z,0.05
2022-12-11T05:45:46.626Z,0.06
2022-12-11T05:48:39.498Z,0.09
2022-12-11T05:51:34.422Z,0.12
2022-12-11T05:54:26.350Z,0.15
2022-12-11T05:57:18.631Z,0.22
2022-12-11T06:00:12.536Z,0.27
2022-12-11T06:03:05.194Z,0.30
2022-12-11T06:05:57.546Z,0.28
2022-12-11T06:08:52.686Z,0.25
2022-12-11T06:11:44.935Z,0.23
2022-12-11T06:14:37.053Z,0.22
2022-12-11T06:17:29.252Z,0.23
2022-12-11T06:20:21.680Z,0.21
2022-12-11T06:23:13.934Z,0.18
2022-12-11T06:26:08.303Z,0.12
2022-12-11T06:29:00.716Z,0.06
2022-12-11T06:31:53.039Z,0.02
2022-12-11T06:34:45.356Z,-0.02
2022-12-11T06:37:38.014Z,-0.05
2022-12-11T06:40:30.450Z,-0.05
2022-12-11T06:43:22.720Z,-0.03
2022-12-11T06:46:17.285Z,0.02
2022-12-11T06:49:09.397Z,0.07
2022-12-11T06:52:01.687Z,0.11
2022-12-11T06:54:54.026Z,0.15
2022-12-11T06:57:46.315Z,0.17
2022-12-11T07:00:39.908Z,0.18
2022-12-11T07:03:32.062Z,0.18
2022-12-11T07:06:24.985Z,0.17
2022-12-11T07:09:17.386Z,0.15
2022-12-11T07:12:10.627Z,0.17
2022-12-11T07:15:03.006Z,0.18
2022-12-11T07:17:55.324Z,0.21
2022-12-11T07:20:48.107Z,0.24
2022-12-11T07:23:40.743Z,0.22
2022-12-11T07:26:33.023Z,0.18
2022-12-11T07:29:25.351Z,0.15
2022-12-11T07:32:17.811Z,0.12
2022-12-11T07:35:11.187Z,0.07
2022-12-11T07:38:03.889Z,0.04
2022-12-11T07:40:56.205Z,0.03
2022-12-11T07:43:48.588Z,0.02
2022-12-11T07:46:41.501Z,0.03
2022-12-11T07:49:33.920Z,0.04
2022-12-11T07:52:26.631Z,0.04
2022-12-11T07:55:18.997Z,0.03
2022-12-11T07:58:11.449Z,-0.02
2022-12-11T08:01:03.819Z,-0.08
2022-12-11T08:03:57.207Z,-0.14
2022-12-11T08:06:49.083Z,-0.19
2022-12-11T08:09:47.988Z,-0.24
2022-12-11T08:12:40.350Z,-0.27
2022-12-11T08:15:32.571Z,-0.30
2022-12-11T08:18:24.954Z,-0.32
2022-12-11T08:21:18.937Z,-0.34
2022-12-11T08:24:11.690Z,-0.36
2022-12-11T08:27:03.912Z,-0.38
2022-12-11T08:29:56.461Z,-0.41
2022-12-11T08:32:48.787Z,-0.43
2022-12-11T08:35:44.276Z,-0.46
2022-12-11T08:38:36.154Z,-0.48
2022-12-11T08:41:30.309Z,-0.51
2022-12-11T08:44:25.259Z,-0.52
2022-12-11T08:47:17.486Z,-0.52
2022-12-11T08:50:10.530Z,-0.51
2022-12-11T08:53:02.761Z,-0.49
2022-12-11T08:55:54.885Z,-0.49
2022-12-11T08:58:48.030Z,-0.49
2022-12-11T09:01:39.849Z,-0.48
2022-12-11T09:04:32.420Z,-0.50
2022-12-11T09:07:24.708Z,-0.53
2022-12-11T09:10:16.914Z,-0.56
2022-12-11T09:13:09.230Z,-0.59
2022-12-11T09:16:01.591Z,-0.58
2022-12-11T09:18:59.117Z,-0.55
2022-12-11T09:21:51.175Z,-0.51
2022-12-11T09:24:43.563Z,-0.38
2022-12-11T09:27:37.152Z,-0.28
2022-12-11T09:30:29.343Z,-0.20
2022-12-11T09:33:21.695Z,-0.12
2022-12-11T09:36:14.742Z,0.02
2022-12-11T09:39:09.108Z,0.20
2022-12-11T09:42:09.309Z,0.43
2022-12-11T09:45:03.223Z,0.55
2022-12-11T09:47:57.383Z,0.63
2022-12-11T09:50:52.897Z,0.75
2022-12-11T09:53:44.728Z,0.87
2022-12-11T09:56:43.788Z,1.13
2022-12-11T09:59:45.321Z,1.40
2022-12-11T10:02:51.326Z,1.59
2022-12-11T10:05:51.456Z,1.92
2022-12-11T10:08:53.778Z,2.28
2022-12-11T10:12:07.985Z,2.53
2022-12-11T10:15:18.589Z,2.69
2022-12-11T10:18:17.327Z,2.60
2022-12-11T10:21:10.912Z,2.56
2022-12-11T10:24:11.620Z,2.61
2022-12-11T10:27:15.490Z,2.51
2022-12-11T10:30:16.298Z,2.35
2022-12-11T10:33:18.414Z,2.18
2022-12-11T10:36:11.955Z,2.01
2022-12-11T10:39:05.017Z,1.84
2022-12-11T10:41:58.195Z,1.70
2022-12-11T10:45:01.796Z,1.53
2022-12-11T10:48:02.903Z,1.34
2022-12-11T10:51:07.276Z,1.21
2022-12-11T10:54:07.277Z,1.13
2022-12-11T10:57:00.620Z,1.10
2022-12-11T10:59:54.047Z,1.08
2022-12-11T11:02:48.369Z,1.07
2022-12-11T11:05:44.922Z,1.08
2022-12-11T11:08:45.835Z,1.12
2022-12-11T11:11:39.615Z,1.08
2022-12-11T11:14:31.798Z,1.04
2022-12-11T11:17:23.979Z,1.01
2022-12-11T11:20:20.108Z,1.02
2022-12-11T11:23:17.256Z,1.07
2022-12-11T11:26:13.210Z,1.14
2022-12-11T11:29:06.215Z,1.35
2022-12-11T11:31:58.660Z,1.55
2022-12-11T11:34:51.094Z,1.67
2022-12-11T11:37:46.753Z,1.69
2022-12-11T11:40:43.828Z,1.65
2022-12-11T11:43:43.851Z,1.62
2022-12-11T11:46:40.669Z,1.55
2022-12-11T11:49:45.834Z,1.51
2022-12-11T11:52:45.590Z,2.20
2022-12-11T11:55:48.515Z,5.12
2022-12-11T11:58:46.996Z,8.19
2022-12-11T12:01:39.161Z,10.68
2022-12-11T12:04:35.327Z,12.66
2022-12-11T12:07:40.821Z,14.38
2022-12-11T12:10:44.741Z,16.07
2022-12-11T12:13:50.603Z,17.39
2022-12-11T12:16:53.650Z,18.16
2022-12-11T12:19:53.186Z,17.79
2022-12-11T12:23:08.315Z,16.48
2022-12-11T12:26:07.993Z,15.11
2022-12-11T12:29:12.292Z,13.21
2022-12-11T12:32:11.005Z,11.38
2022-12-11T12:35:16.971Z,9.81
2022-12-11T12:38:17.007Z,8.41
2022-12-11T12:41:19.795Z,7.25
2022-12-11T12:44:19.575Z,6.36
2022-12-11T12:47:16.113Z,5.67
2022-12-11T12:50:14.823Z,5.13
2022-12-11T12:53:25.354Z,4.72
2022-12-11T12:56:18.409Z,4.43
2022-12-11T12:59:22.257Z,4.29
2022-12-11T13:02:18.808Z,4.28
2022-12-11T13:05:24.927Z,4.42
2022-12-11T13:08:29.043Z,4.60
2022-12-11T13:11:31.547Z,4.90
2022-12-11T13:14:32.761Z,5.09
2022-12-11T13:17:39.036Z,5.04
2022-12-11T13:20:32.349Z,4.94
2022-12-11T13:23:31.265Z,4.77
2022-12-11T13:26:33.018Z,4.45
2022-12-11T13:29:39.623Z,4.08
2022-12-11T13:32:34.588Z,3.71
2022-12-11T13:35:27.678Z,3.38
2022-12-11T13:38:22.387Z,3.08
2022-12-11T13:41:20.063Z,2.79
2022-12-11T13:44:21.493Z,2.60
2022-12-11T13:47:18.825Z,2.46
2022-12-11T13:50:20.080Z,2.46
2022-12-11T13:53:19.398Z,2.53
2022-12-11T13:56:20.063Z,2.57
2022-12-11T13:59:25.942Z,2.58
2022-12-11T14:02:22.865Z,2.54
2022-12-11T14:05:16.420Z,2.46
2022-12-11T14:08:11.849Z,2.36
2022-12-11T14:11:05.645Z,2.22
2022-12-11T14:14:01.182Z,2.07
2022-12-11T14:16:54.148Z,2.07
2022-12-11T14:19:50.744Z,2.09
2022-12-11T14:22:42.764Z,2.04
2022-12-11T14:25:35.195Z,1.99
2022-12-11T14:28:29.272Z,1.87
2022-12-11T14:31:25.741Z,1.69
2022-12-11T14:34:24.880Z,1.52
2022-12-11T14:37:19.180Z,1.37
2022-12-11T14:40:17.516Z,1.23
2022-12-11T14:43:13.973Z,1.12
2022-12-11T14:46:10.423Z,1.03
2022-12-11T14:49:07.934Z,0.95
2022-12-11T14:52:01.492Z,0.87
2022-12-11T14:54:58.443Z,0.83
2022-12-11T14:57:55.441Z,0.80
2022-12-11T15:00:57.709Z,0.76
2022-12-11T15:03:50.262Z,0.71
2022-12-11T15:06:48.803Z,0.65
2022-12-11T15:09:42.699Z,0.60
2022-12-11T15:12:35.185Z,0.54
2022-12-11T15:15:29.603Z,0.50
2022-12-11T15:18:25.589Z,0.45
2022-12-11T15:21:17.694Z,0.44
2022-12-11T15:24:27.402Z,0.46
2022-12-11T15:27:31.808Z,0.51
2022-12-11T15:30:43.454Z,0.56
2022-12-11T15:33:46.577Z,0.62
2022-12-11T15:36:39.528Z,0.67
2022-12-11T15:39:32.911Z,0.70
2022-12-11T15:42:29.019Z,0.73
2022-12-11T15:45:22.941Z,0.74
2022-12-11T15:48:15.099Z,0.74
2022-12-11T15:51:07.535Z,0.73
2022-12-11T15:53:59.788Z,0.74
2022-12-11T15:56:52.044Z,0.75
2022-12-11T15:59:45.041Z,0.76
2022-12-11T16:02:37.719Z,0.79
2022-12-11T16:05:30.264Z,0.81
2022-12-11T16:08:24.112Z,0.82
2022-12-11T16:11:17.230Z,0.83
2022-12-11T16:14:09.420Z,0.80
2022-12-11T16:17:01.717Z,0.73
2022-12-11T16:19:54.868Z,0.64
2022-12-11T16:22:46.998Z,0.58
2022-12-11T16:25:40.542Z,0.55
2022-12-11T16:28:32.713Z,0.55
2022-12-11T16:31:24.911Z,0.56
2022-12-11T16:34:17.113Z,0.59
2022-12-11T16:37:10.661Z,0.63
2022-12-11T16:40:02.814Z,0.64
2022-12-11T16:42:55.811Z,0.65
2022-12-11T16:45:48.024Z,0.62
2022-12-11T16:48:40.220Z,0.60
2022-12-11T16:51:32.657Z,0.59
2022-12-11T16:54:24.841Z,0.58
2022-12-11T16:57:17.204Z,0.55
2022-12-11T17:00:12.221Z,0.52
2022-12-11T17:03:04.479Z,0.48
2022-12-11T17:05:57.173Z,0.46
2022-12-11T17:08:49.998Z,0.46
2022-12-11T17:11:43.277Z,0.49
2022-12-11T17:14:35.559Z,0.53
2022-12-11T17:17:27.825Z,0.55
2022-12-11T17:20:21.507Z,0.56
2022-12-11T17:23:14.686Z,0.56
2022-12-11T17:26:09.013Z,0.56
2022-12-11T17:29:01.937Z,0.57
2022-12-11T17:31:54.261Z,0.59
2022-12-11T17:34:48.336Z,0.62
2022-12-11T17:37:40.205Z,0.65
2022-12-11T17:40:32.453Z,0.68
2022-12-11T17:43:24.886Z,0.70
2022-12-11T17:46:17.247Z,0.72
2022-12-11T17:49:09.534Z,0.72
2022-12-11T17:52:02.265Z,0.70
2022-12-11T17:54:55.335Z,0.68
2022-12-11T17:57:47.851Z,0.66
2022-12-11T18:00:41.408Z,0.66
2022-12-11T18:03:33.338Z,0.66
2022-12-11T18:06:25.632Z,0.67
2022-12-11T18:09:17.993Z,0.68
2022-12-11T18:12:11.073Z,0.69
2022-12-11T18:15:04.959Z,0.70
2022-12-11T18:17:59.780Z,0.69
2022-12-11T18:20:52.307Z,0.67
2022-12-11T18:23:44.824Z,0.66
2022-12-11T18:26:38.051Z,0.67
2022-12-11T18:29:30.447Z,0.68
2022-12-11T18:32:22.598Z,0.70
2022-12-11T18:35:15.473Z,0.71
2022-12-11T18:38:07.654Z,0.71
2022-12-11T18:40:59.975Z,0.70
2022-12-11T18:43:54.839Z,0.68
2022-12-11T18:46:47.246Z,0.66
2022-12-11T18:49:39.918Z,0.62
2022-12-11T18:52:32.295Z,0.59
2022-12-11T18:55:24.881Z,0.56
2022-12-11T18:58:20.746Z,0.54
2022-12-11T19:01:15.243Z,0.53
2022-12-11T19:04:11.121Z,0.52
2022-12-11T19:07:04.177Z,0.50
2022-12-11T19:09:56.542Z,0.47
2022-12-11T19:12:49.592Z,0.43
2022-12-11T19:15:45.462Z,0.38
2022-12-11T19:18:37.753Z,0.33
2022-12-11T19:21:30.375Z,0.30
2022-12-11T19:24:24.878Z,0.29
2022-12-11T19:27:17.109Z,0.29
2022-12-11T19:30:12.601Z,0.29
2022-12-11T19:33:04.547Z,0.28
2022-12-11T19:36:05.223Z,0.27
2022-12-11T19:39:01.945Z,0.27
2022-12-11T19:41:55.234Z,0.25
2022-12-11T19:44:47.416Z,0.20
2022-12-11T19:47:39.699Z,0.17
2022-12-11T19:50:31.834Z,0.13
2022-12-11T19:53:24.080Z,0.10
2022-12-11T19:56:22.313Z,0.07
2022-12-11T19:59:16.877Z,0.05
2022-12-11T20:02:11.314Z,0.04
2022-12-11T20:05:03.774Z,0.04
2022-12-11T20:08:02.120Z,0.04
2022-12-11T20:11:14.318Z,0.04
2022-12-11T20:14:09.774Z,0.04
2022-12-11T20:17:12.331Z,0.05
2022-12-11T20:20:05.123Z,0.04
2022-12-11T20:22:59.975Z,0.06
2022-12-11T20:25:57.428Z,0.07
2022-12-11T20:28:52.994Z,0.08
2022-12-11T20:31:45.842Z,0.08
2022-12-11T20:34:38.173Z,0.08
2022-12-11T20:37:30.531Z,0.08
2022-12-11T20:40:22.951Z,0.07
2022-12-11T20:43:15.529Z,0.05
2022-12-11T20:46:09.957Z,0.03
2022-12-11T20:49:03.511Z,-0.02
2022-12-11T20:51:55.744Z,-0.05
2022-12-11T20:54:48.047Z,-0.07
2022-12-11T21:01:08.626Z,-0.10
2022-12-11T21:04:01.446Z,-0.11
2022-12-11T21:06:56.524Z,-0.12
2022-12-11T21:09:48.759Z,-0.14
2022-12-11T21:12:47.307Z,-0.17
2022-12-11T21:15:40.260Z,-0.21
2022-12-11T21:18:33.266Z,-0.25
2022-12-11T21:21:25.970Z,-0.29
2022-12-11T21:24:20.693Z,-0.32
2022-12-11T21:27:12.756Z,-0.33
2022-12-11T21:30:05.724Z,-0.34
2022-12-11T21:32:57.975Z,-0.35
2022-12-11T21:35:57.121Z,-0.34
2022-12-11T21:38:49.698Z,-0.34
2022-12-11T21:41:42.176Z,-0.35
2022-12-11T21:45:31.465Z,-0.37
2022-12-11T21:47:46.952Z,-0.40
2022-12-11T21:50:39.435Z,-0.44
2022-12-11T21:53:32.103Z,-0.47
2022-12-11T21:56:25.723Z,-0.50
2022-12-11T21:59:18.245Z,-0.51
2022-12-11T22:02:12.251Z,-0.52
2022-12-11T22:05:04.992Z,-0.52
2022-12-11T22:07:57.249Z,-0.52
2022-12-11T22:10:49.715Z,-0.53
2022-12-11T22:13:42.246Z,-0.54
2022-12-11T22:16:35.097Z,-0.56
2022-12-11T22:19:32.320Z,-0.60
2022-12-11T22:22:25.111Z,-0.63
2022-12-11T22:25:18.050Z,-0.66
2022-12-11T22:28:10.323Z,-0.67
2022-12-11T22:31:03.069Z,-0.66
2022-12-11T22:33:56.917Z,-0.65
2022-12-11T22:36:49.445Z,-0.65
2022-12-11T22:39:41.801Z,-0.64
2022-12-11T22:42:34.687Z,-0.63
2022-12-11T22:45:27.031Z,-0.65
2022-12-11T22:48:19.794Z,-0.68
2022-12-11T22:51:12.873Z,-0.72
2022-12-11T22:54:05.230Z,-0.74
2022-12-11T22:56:57.467Z,-0.75
2022-12-11T22:59:49.964Z,-0.75
2022-12-11T23:02:43.125Z,-0.75
2022-12-11T23:05:35.172Z,-0.74
2022-12-11T23:08:27.536Z,-0.74
2022-12-11T23:11:22.310Z,-0.75
2022-12-11T23:14:18.624Z,-0.76
2022-12-11T23:17:10.784Z,-0.78
2022-12-11T23:20:04.142Z,-0.81
2022-12-11T23:22:56.370Z,-0.83
2022-12-11T23:25:48.686Z,-0.83
2022-12-11T23:28:41.925Z,-0.82
2022-12-11T23:31:34.245Z,-0.79
2022-12-11T23:34:26.532Z,-0.76
2022-12-11T23:37:18.821Z,-0.72
2022-12-11T23:40:14.393Z,-0.66
2022-12-11T23:43:06.559Z,-0.62
2022-12-11T23:45:58.824Z,-0.59
2022-12-11T23:48:51.448Z,-0.56
2022-12-11T23:51:43.867Z,-0.54
2022-12-11T23:54:36.129Z,-0.52
2022-12-11T23:57:28.455Z,-0.52
